createdAt,value
2019-03-02T00:01:49.603Z,15.03
2019-03-02T00:04:19.187Z,16.37
2019-03-02T00:06:48.783Z,15.07
2019-03-02T00:09:18.410Z,15.03
2019-03-02T00:11:48.056Z,16.90
2019-03-02T00:14:19.226Z,15.77
2019-03-02T00:16:48.934Z,16.63
2019-03-02T00:19:18.583Z,15.40
2019-03-02T00:21:48.143Z,15.70
2019-03-02T00:24:17.724Z,14.17
2019-03-02T00:26:47.316Z,14.73
2019-03-02T00:29:16.987Z,15.93
2019-03-02T00:31:46.640Z,14.40
2019-03-02T00:34:16.315Z,14.53
2019-03-02T00:36:45.919Z,14.63
2019-03-02T00:39:18.911Z,13.77
2019-03-02T00:41:46.954Z,12.90
2019-03-02T00:44:16.615Z,14.50
2019-03-02T00:46:46.254Z,15.10
2019-03-02T00:49:15.932Z,14.03
2019-03-02T00:51:46.344Z,14.43
2019-03-02T00:54:17.018Z,15.60
2019-03-02T00:56:48.015Z,14.33
2019-03-02T00:59:20.738Z,15.00
2019-03-02T01:01:50.380Z,16.70
2019-03-02T01:04:22.731Z,13.97
2019-03-02T01:06:51.441Z,15.00
2019-03-02T01:09:21.179Z,15.40
2019-03-02T01:11:50.820Z,16.20
2019-03-02T01:14:20.651Z,16.43
2019-03-02T01:16:51.640Z,16.13
2019-03-02T01:19:21.608Z,16.70
2019-03-02T01:21:51.332Z,18.70
2019-03-02T01:24:21.019Z,16.53
2019-03-02T01:26:50.677Z,16.90
2019-03-02T01:29:20.493Z,16.63
2019-03-02T01:31:50.197Z,17.13
2019-03-02T01:34:19.783Z,16.97
2019-03-02T01:36:49.412Z,16.10
2019-03-02T01:39:19.028Z,18.23
2019-03-02T01:41:50.986Z,18.93
2019-03-02T01:44:21.463Z,15.97
2019-03-02T01:46:52.860Z,16.67
2019-03-02T01:49:22.490Z,18.90
2019-03-02T01:51:54.701Z,16.27
2019-03-02T01:54:23.655Z,20.57
2019-03-02T01:56:53.315Z,17.10
2019-03-02T01:59:22.943Z,16.33
2019-03-02T02:01:52.563Z,17.03
2019-03-02T02:04:22.653Z,15.57
2019-03-02T02:06:53.592Z,15.07
2019-03-02T02:09:27.803Z,15.47
2019-03-02T02:11:57.438Z,14.67
2019-03-02T02:14:27.134Z,15.77
2019-03-02T02:16:56.885Z,15.23
2019-03-02T02:19:26.522Z,15.40
2019-03-02T02:21:58.787Z,14.73
2019-03-02T02:24:27.511Z,15.27
2019-03-02T02:26:57.123Z,13.77
2019-03-02T02:29:26.862Z,13.10
2019-03-02T02:31:56.662Z,14.50
2019-03-02T02:34:26.356Z,13.27
2019-03-02T02:36:58.122Z,13.50
2019-03-02T02:39:28.906Z,15.43
2019-03-02T02:41:59.953Z,14.30
2019-03-02T02:44:33.126Z,14.60
2019-03-02T02:47:01.436Z,15.00
2019-03-02T02:49:31.128Z,14.03
2019-03-02T02:52:00.795Z,13.27
2019-03-02T02:54:30.359Z,14.10
2019-03-02T02:57:00.549Z,14.70
2019-03-02T02:59:34.013Z,15.57
2019-03-02T03:02:01.830Z,16.57
2019-03-02T03:04:32.585Z,16.37
2019-03-02T03:07:07.082Z,14.20
2019-03-02T03:09:39.172Z,14.63
2019-03-02T03:12:08.975Z,15.87
2019-03-02T03:14:38.607Z,12.70
2019-03-02T03:17:09.149Z,14.20
2019-03-02T03:19:38.828Z,13.40
2019-03-02T03:22:09.167Z,13.30
2019-03-02T03:24:40.487Z,13.60
2019-03-02T03:27:13.341Z,14.33
2019-03-02T03:29:44.543Z,13.23
2019-03-02T03:32:13.105Z,13.37
2019-03-02T03:34:42.803Z,13.37
2019-03-02T03:37:13.279Z,13.20
2019-03-02T03:39:46.584Z,13.33
2019-03-02T03:42:22.253Z,13.23
2019-03-02T03:44:47.737Z,12.50
2019-03-02T03:47:17.328Z,14.47
2019-03-02T03:49:47.000Z,12.57
2019-03-02T03:52:16.655Z,12.43
2019-03-02T03:54:46.494Z,12.90
2019-03-02T03:57:17.140Z,12.63
2019-03-02T03:59:47.611Z,13.10
2019-03-02T04:02:17.241Z,13.53
2019-03-02T04:04:46.816Z,13.70
2019-03-02T04:07:16.444Z,14.23
2019-03-02T04:09:46.835Z,14.80
2019-03-02T04:12:20.007Z,14.70
2019-03-02T04:14:48.738Z,16.07
2019-03-02T04:17:18.354Z,14.73
2019-03-02T04:19:47.959Z,15.37
2019-03-02T04:22:17.860Z,15.90
2019-03-02T04:24:47.463Z,15.13
2019-03-02T04:27:17.224Z,17.50
2019-03-02T04:29:49.808Z,17.73
2019-03-02T04:32:23.727Z,17.33
2019-03-02T04:34:54.418Z,16.90
2019-03-02T04:37:23.855Z,18.43
2019-03-02T04:39:53.256Z,17.60
2019-03-02T04:42:22.959Z,20.33
2019-03-02T04:44:52.555Z,20.53
2019-03-02T04:47:22.561Z,19.00
2019-03-02T04:49:53.652Z,18.87
2019-03-02T04:52:23.294Z,18.70
2019-03-02T04:54:52.910Z,20.60
2019-03-02T04:57:22.530Z,19.13
2019-03-02T04:59:53.693Z,18.77
2019-03-02T05:02:23.563Z,21.50
2019-03-02T05:04:53.177Z,20.20
2019-03-02T05:07:22.798Z,20.83
2019-03-02T05:09:53.002Z,21.70
2019-03-02T05:12:22.618Z,22.20
2019-03-02T05:14:52.223Z,22.53
2019-03-02T05:17:21.878Z,23.30
2019-03-02T05:19:51.597Z,24.97
2019-03-02T05:22:21.255Z,24.03
2019-03-02T05:24:50.940Z,21.33
2019-03-02T05:27:20.577Z,23.23
2019-03-02T05:29:50.794Z,25.03
2019-03-02T05:32:21.650Z,22.43
2019-03-02T05:34:51.229Z,22.30
2019-03-02T05:37:20.919Z,21.87
2019-03-02T05:39:52.919Z,21.73
2019-03-02T05:42:21.982Z,21.47
2019-03-02T05:44:51.635Z,22.23
2019-03-02T05:47:21.247Z,22.37
2019-03-02T05:49:54.261Z,22.00
2019-03-02T05:52:22.197Z,21.60
2019-03-02T05:54:51.866Z,20.77
2019-03-02T05:57:21.567Z,21.43
2019-03-02T05:59:51.247Z,20.57
2019-03-02T06:02:21.037Z,20.83
2019-03-02T06:04:53.674Z,21.03
2019-03-02T06:07:21.971Z,21.60
2019-03-02T06:09:51.656Z,19.77
2019-03-02T06:12:21.285Z,21.07
2019-03-02T06:14:50.840Z,20.30
2019-03-02T06:17:20.394Z,20.53
2019-03-02T06:19:49.958Z,21.70
2019-03-02T06:22:21.144Z,20.80
2019-03-02T06:24:51.048Z,20.13
2019-03-02T06:27:20.595Z,21.47
2019-03-02T06:29:50.167Z,21.10
2019-03-02T06:32:19.729Z,20.80
2019-03-02T06:34:51.996Z,21.37
2019-03-02T06:37:20.862Z,21.53
2019-03-02T06:39:50.492Z,21.53
2019-03-02T06:42:20.035Z,21.03
2019-03-02T06:44:49.681Z,20.20
2019-03-02T06:47:19.451Z,21.77
2019-03-02T06:49:49.004Z,21.93
2019-03-02T06:52:19.232Z,22.03
2019-03-02T06:54:49.863Z,20.80
2019-03-02T06:57:19.399Z,20.93
2019-03-02T06:59:48.967Z,22.80
2019-03-02T07:02:18.520Z,18.93
2019-03-02T07:04:48.122Z,21.87
2019-03-02T07:07:18.632Z,20.17
2019-03-02T07:09:49.080Z,20.90
2019-03-02T07:12:18.729Z,21.77
2019-03-02T07:14:48.392Z,20.83
2019-03-02T07:17:30.897Z,20.60
2019-03-02T07:20:07.804Z,20.87
2019-03-02T07:22:37.403Z,20.53
2019-03-02T07:25:07.110Z,20.17
2019-03-02T07:27:36.791Z,21.93
2019-03-02T07:30:06.582Z,21.10
2019-03-02T07:32:36.266Z,20.80
2019-03-02T07:35:05.940Z,21.70
2019-03-02T07:37:35.595Z,21.73
2019-03-02T07:40:05.635Z,21.67
2019-03-02T07:42:36.572Z,22.80
2019-03-02T07:45:07.052Z,23.37
2019-03-02T07:47:36.703Z,22.07
2019-03-02T07:50:06.450Z,22.27
2019-03-02T07:52:36.321Z,22.53
2019-03-02T07:55:05.972Z,21.83
2019-03-02T07:57:35.767Z,23.43
2019-03-02T08:00:06.659Z,21.23
2019-03-02T08:02:36.373Z,22.60
2019-03-02T08:05:06.544Z,24.63
2019-03-02T08:07:38.126Z,24.27
2019-03-02T08:10:08.224Z,24.33
2019-03-02T08:12:37.919Z,22.43
2019-03-02T08:15:08.923Z,24.17
2019-03-02T08:17:38.540Z,22.47
2019-03-02T08:20:09.300Z,23.23
2019-03-02T08:22:39.187Z,24.00
2019-03-02T08:25:10.252Z,24.03
2019-03-02T08:27:40.887Z,24.90
2019-03-02T08:30:11.780Z,23.33
2019-03-02T08:32:41.400Z,23.13
2019-03-02T08:35:11.286Z,24.60
2019-03-02T08:37:40.993Z,24.40
2019-03-02T08:40:11.111Z,24.77
2019-03-02T08:42:40.816Z,24.23
2019-03-02T08:45:14.406Z,25.53
2019-03-02T08:47:44.180Z,24.47
2019-03-02T08:50:17.568Z,24.20
2019-03-02T08:52:45.590Z,22.67
2019-03-02T08:55:15.521Z,24.07
2019-03-02T08:57:45.126Z,23.47
2019-03-02T09:00:16.803Z,24.17
2019-03-02T09:02:46.577Z,24.23
2019-03-02T09:05:16.304Z,26.57
2019-03-02T09:07:46.125Z,23.60
2019-03-02T09:10:15.771Z,24.23
2019-03-02T09:12:45.457Z,24.73
2019-03-02T09:15:22.097Z,23.43
2019-03-02T09:17:54.197Z,22.30
2019-03-02T09:20:21.935Z,22.90
2019-03-02T09:22:51.530Z,24.00
2019-03-02T09:25:23.795Z,23.47
2019-03-02T09:27:52.602Z,25.17
2019-03-02T09:30:22.307Z,23.27
2019-03-02T09:32:52.493Z,25.00
2019-03-02T09:35:22.371Z,24.27
2019-03-02T09:37:51.969Z,23.00
2019-03-02T09:40:24.078Z,23.67
2019-03-02T09:42:53.189Z,24.33
2019-03-02T09:45:23.131Z,23.80
2019-03-02T09:47:52.755Z,24.00
2019-03-02T09:50:22.791Z,22.30
2019-03-02T09:52:52.610Z,24.03
2019-03-02T09:55:22.267Z,22.37
2019-03-02T09:57:52.181Z,23.97
2019-03-02T10:00:23.840Z,23.07
2019-03-02T10:02:53.965Z,22.03
2019-03-02T10:05:25.938Z,22.13
2019-03-02T10:07:55.241Z,23.00
2019-03-02T10:10:28.465Z,22.80
2019-03-02T10:12:56.314Z,22.63
2019-03-02T10:15:25.941Z,22.33
2019-03-02T10:17:55.743Z,21.27
2019-03-02T10:20:25.315Z,21.70
2019-03-02T10:22:54.901Z,22.97
2019-03-02T10:25:25.949Z,21.90
2019-03-02T10:27:57.518Z,21.07
2019-03-02T10:30:27.583Z,20.23
2019-03-02T10:32:57.487Z,21.20
2019-03-02T10:35:27.067Z,21.57
2019-03-02T10:37:56.675Z,20.20
2019-03-02T10:40:26.403Z,19.43
2019-03-02T10:42:55.959Z,19.27
2019-03-02T10:45:25.604Z,20.90
2019-03-02T10:47:55.164Z,20.07
2019-03-02T10:50:25.431Z,18.10
2019-03-02T10:52:55.829Z,18.97
2019-03-02T10:55:25.410Z,18.50
2019-03-02T10:57:54.954Z,18.30
2019-03-02T11:00:29.516Z,19.33
2019-03-02T11:02:58.622Z,19.77
2019-03-02T11:05:56.828Z,21.00
2019-03-02T11:09:04.048Z,20.50
2019-03-02T11:11:51.840Z,19.40
2019-03-02T11:14:27.867Z,20.60
2019-03-02T11:17:29.352Z,19.47
2019-03-02T11:20:10.592Z,19.07
2019-03-02T11:22:51.425Z,20.73
2019-03-02T11:25:38.915Z,18.93
2019-03-02T11:28:19.897Z,19.37
2019-03-02T11:31:17.650Z,18.60
2019-03-02T11:34:13.273Z,18.77
2019-03-02T11:37:00.730Z,19.27
2019-03-02T11:39:55.207Z,18.03
2019-03-02T11:42:30.558Z,18.57
2019-03-02T11:45:38.378Z,17.87
2019-03-02T11:48:36.109Z,16.90
2019-03-02T11:51:31.424Z,15.17
2019-03-02T11:54:18.584Z,17.40
2019-03-02T11:57:25.284Z,17.03
2019-03-02T12:00:10.889Z,18.43
2019-03-02T12:03:03.795Z,16.90
2019-03-02T12:05:49.503Z,17.63
2019-03-02T12:08:30.488Z,17.70
2019-03-02T12:11:20.983Z,21.00
2019-03-02T12:14:15.674Z,15.93
2019-03-02T12:17:05.955Z,16.57
2019-03-02T12:19:50.656Z,17.17
2019-03-02T12:22:34.156Z,20.03
2019-03-02T12:25:35.066Z,17.07
2019-03-02T12:28:23.020Z,16.87
2019-03-02T12:31:17.588Z,17.30
2019-03-02T12:33:57.660Z,14.20
2019-03-02T12:36:34.471Z,13.80
2019-03-02T12:39:13.701Z,14.97
2019-03-02T12:42:17.518Z,14.00
2019-03-02T12:45:09.910Z,11.87
2019-03-02T12:47:49.929Z,11.87
2019-03-02T12:50:38.603Z,11.00
2019-03-02T12:53:28.737Z,20.03
2019-03-02T12:56:17.812Z,20.57
2019-03-02T12:59:06.552Z,11.40
2019-03-02T13:01:58.076Z,11.40
2019-03-02T13:04:45.398Z,12.07
2019-03-02T13:07:26.100Z,14.90
2019-03-02T13:10:15.134Z,12.33
2019-03-02T13:13:02.157Z,12.80
2019-03-02T13:15:58.900Z,12.23
2019-03-02T13:18:37.873Z,11.57
2019-03-02T13:21:23.809Z,11.37
2019-03-02T13:24:19.181Z,10.97
2019-03-02T13:27:07.279Z,12.70
2019-03-02T13:29:49.163Z,11.53
2019-03-02T13:32:34.015Z,12.50
2019-03-02T13:35:15.538Z,12.00
2019-03-02T13:37:57.225Z,11.90
2019-03-02T13:40:42.864Z,10.50
2019-03-02T13:43:37.683Z,10.43
2019-03-02T13:46:25.028Z,10.50
2019-03-02T13:49:16.541Z,9.93
2019-03-02T13:52:15.294Z,9.57
2019-03-02T13:55:01.279Z,8.70
2019-03-02T13:57:43.583Z,69.33
2019-03-02T14:00:25.559Z,57.43
2019-03-02T14:03:17.202Z,17.57
2019-03-02T14:06:05.902Z,11.90
2019-03-02T14:08:43.423Z,19.77
2019-03-02T14:11:32.657Z,16.87
2019-03-02T14:14:10.874Z,24.73
2019-03-02T14:16:58.324Z,25.37
2019-03-02T14:19:48.481Z,28.97
2019-03-02T14:22:27.149Z,12.83
2019-03-02T14:25:08.823Z,11.47
2019-03-02T14:27:49.240Z,12.10
2019-03-02T14:30:27.968Z,11.20
2019-03-02T14:33:06.367Z,10.63
2019-03-02T14:35:48.485Z,10.20
2019-03-02T14:38:37.196Z,10.27
2019-03-02T14:41:15.648Z,10.77
2019-03-02T14:44:13.526Z,10.20
2019-03-02T14:47:02.246Z,9.93
2019-03-02T14:49:49.440Z,9.23
2019-03-02T14:52:35.932Z,11.37
2019-03-02T14:55:22.279Z,10.83
2019-03-02T14:58:02.753Z,10.90
2019-03-02T15:00:47.810Z,9.77
2019-03-02T15:03:35.054Z,12.03
2019-03-02T15:06:12.252Z,10.07
2019-03-02T15:09:01.055Z,10.20
2019-03-02T15:11:39.961Z,9.90
2019-03-02T15:14:31.366Z,10.20
2019-03-02T15:17:23.162Z,7.70
2019-03-02T15:20:02.584Z,8.17
2019-03-02T15:23:00.532Z,8.30
2019-03-02T15:25:46.435Z,5.43
2019-03-02T15:28:33.957Z,4.80
2019-03-02T15:31:27.553Z,4.30
2019-03-02T15:34:03.007Z,4.63
2019-03-02T15:36:51.703Z,5.70
2019-03-02T15:39:35.462Z,7.53
2019-03-02T15:42:18.065Z,5.10
2019-03-02T15:44:54.901Z,4.07
2019-03-02T15:47:50.737Z,4.70
2019-03-02T15:50:39.660Z,4.80
2019-03-02T15:53:31.112Z,5.03
2019-03-02T15:56:08.671Z,5.37
2019-03-02T15:59:06.620Z,5.20
2019-03-02T16:01:44.748Z,4.43
2019-03-02T16:04:23.527Z,3.90
2019-03-02T16:07:18.037Z,3.83
2019-03-02T16:09:54.620Z,4.57
2019-03-02T16:12:40.961Z,4.23
2019-03-02T16:15:16.152Z,5.13
2019-03-02T16:18:04.852Z,5.87
2019-03-02T16:20:42.588Z,6.70
2019-03-02T16:23:35.948Z,6.23
2019-03-02T16:26:19.872Z,4.70
2019-03-02T16:29:06.974Z,4.60
2019-03-02T16:31:45.177Z,5.17
2019-03-02T16:34:24.453Z,5.03
2019-03-02T16:37:07.609Z,6.00
2019-03-02T16:39:53.967Z,6.20
2019-03-02T16:42:54.893Z,4.73
2019-03-02T16:46:03.543Z,5.43
2019-03-02T16:48:40.828Z,4.63
2019-03-02T16:51:30.553Z,5.30
2019-03-02T16:54:25.139Z,4.77
2019-03-02T16:57:12.178Z,4.27
2019-03-02T16:59:50.695Z,4.83
2019-03-02T17:02:42.189Z,4.70
2019-03-02T17:05:38.554Z,4.77
2019-03-02T17:08:27.235Z,4.47
2019-03-02T17:11:28.015Z,4.50
2019-03-02T17:14:08.798Z,4.40
2019-03-02T17:17:07.951Z,4.10
2019-03-02T17:19:46.828Z,4.40
2019-03-02T17:22:21.956Z,3.30
2019-03-02T17:25:10.740Z,4.90
2019-03-02T17:27:59.729Z,2.77
2019-03-02T17:30:46.906Z,3.63
2019-03-02T17:33:32.519Z,3.60
2019-03-02T17:36:29.269Z,3.57
2019-03-02T17:39:09.264Z,3.63
2019-03-02T17:42:13.129Z,3.40
2019-03-02T17:44:55.372Z,3.53
2019-03-02T17:47:45.838Z,3.47
2019-03-02T17:50:33.285Z,3.17
2019-03-02T17:53:23.188Z,4.25
2019-03-02T17:56:11.089Z,14.10
2019-03-02T17:59:08.104Z,12.70
2019-03-02T18:01:55.236Z,13.17
2019-03-02T18:04:50.036Z,8.13
2019-03-02T18:07:37.841Z,17.97
2019-03-02T18:10:29.777Z,37.50
2019-03-02T18:13:06.119Z,13.33
2019-03-02T18:15:43.723Z,11.40
2019-03-02T18:18:13.344Z,11.83
2019-03-02T18:20:43.048Z,6.67
2019-03-02T18:23:12.690Z,7.40
2019-03-02T18:25:44.817Z,7.37
2019-03-02T18:28:14.111Z,5.90
2019-03-02T18:30:45.041Z,6.07
2019-03-02T18:33:44.441Z,4.13
2019-03-02T18:36:14.548Z,5.30
2019-03-02T18:38:44.464Z,4.50
2019-03-02T18:41:16.709Z,4.67
2019-03-02T18:43:46.714Z,4.40
2019-03-02T18:46:17.837Z,5.60
2019-03-02T18:49:14.977Z,5.60
2019-03-02T18:52:09.158Z,5.43
2019-03-02T18:54:38.689Z,3.90
2019-03-02T18:57:09.822Z,4.20
2019-03-02T18:59:39.834Z,4.27
2019-03-02T19:02:21.769Z,3.60
2019-03-02T19:04:51.728Z,3.20
2019-03-02T19:07:21.433Z,3.53
2019-03-02T19:09:51.091Z,3.03
2019-03-02T19:12:20.752Z,3.13
2019-03-02T19:14:53.794Z,3.87
2019-03-02T19:17:21.659Z,4.23
2019-03-02T19:19:51.204Z,3.43
2019-03-02T19:22:20.860Z,3.97
2019-03-02T19:24:50.465Z,3.77
2019-03-02T19:27:20.062Z,3.27
2019-03-02T19:29:49.599Z,3.70
2019-03-02T19:32:19.216Z,5.17
2019-03-02T19:34:48.790Z,4.90
2019-03-02T19:37:18.440Z,4.20
2019-03-02T19:39:47.999Z,4.10
2019-03-02T19:42:17.626Z,3.33
2019-03-02T19:44:47.236Z,3.47
2019-03-02T19:47:16.881Z,4.13
2019-03-02T19:49:46.448Z,4.47
2019-03-02T19:52:16.013Z,4.77
2019-03-02T19:54:45.582Z,4.40
2019-03-02T19:57:15.228Z,4.97
2019-03-02T19:59:44.783Z,4.53
2019-03-02T20:02:14.365Z,3.90
2019-03-02T20:04:44.051Z,3.77
2019-03-02T20:07:13.634Z,4.70
2019-03-02T20:09:43.210Z,3.00
2019-03-02T20:12:14.614Z,3.67
2019-03-02T20:14:44.165Z,3.73
2019-03-02T20:17:13.836Z,3.40
2019-03-02T20:19:43.407Z,4.10
2019-03-02T20:22:13.045Z,4.17
2019-03-02T20:24:42.601Z,4.50
2019-03-02T20:27:12.276Z,3.60
2019-03-02T20:29:41.844Z,5.60
2019-03-02T20:32:11.667Z,5.13
2019-03-02T20:34:41.332Z,5.53
2019-03-02T20:37:10.921Z,5.40
2019-03-02T20:39:40.477Z,3.30
2019-03-02T20:42:10.142Z,4.50
2019-03-02T20:44:39.708Z,4.73
2019-03-02T20:47:09.292Z,5.33
2019-03-02T20:49:38.850Z,3.70
2019-03-02T20:52:08.440Z,4.30
2019-03-02T20:54:38.023Z,3.80
2019-03-02T20:57:07.606Z,5.20
2019-03-02T20:59:37.289Z,4.70
2019-03-02T21:02:06.945Z,4.23
2019-03-02T21:04:36.599Z,3.77
2019-03-02T21:07:09.515Z,3.80
2019-03-02T21:09:40.675Z,5.40
2019-03-02T21:12:10.395Z,4.20
2019-03-02T21:14:40.021Z,4.33
2019-03-02T21:17:09.653Z,4.80
2019-03-02T21:19:39.228Z,3.93
2019-03-02T21:22:08.769Z,3.87
2019-03-02T21:24:38.305Z,3.87
2019-03-02T21:27:07.958Z,3.60
2019-03-02T21:29:37.496Z,4.50
2019-03-02T21:32:07.158Z,3.63
2019-03-02T21:34:36.769Z,4.03
2019-03-02T21:37:10.656Z,4.37
2019-03-02T21:39:40.313Z,5.77
2019-03-02T21:42:10.211Z,4.40
2019-03-02T21:44:39.808Z,3.80
2019-03-02T21:47:09.472Z,4.20
2019-03-02T21:49:39.028Z,4.13
2019-03-02T21:52:08.677Z,4.07
2019-03-02T21:54:38.219Z,4.10
2019-03-02T21:57:07.813Z,4.27
2019-03-02T21:59:37.349Z,4.47
2019-03-02T22:02:06.996Z,5.23
2019-03-02T22:04:36.533Z,5.00
2019-03-02T22:07:06.130Z,4.50
2019-03-02T22:09:35.680Z,4.20
2019-03-02T22:12:05.774Z,4.93
2019-03-02T22:14:35.335Z,5.73
2019-03-02T22:17:05.216Z,4.10
2019-03-02T22:19:34.770Z,4.20
2019-03-02T22:22:04.387Z,5.00
2019-03-02T22:24:34.118Z,4.40
2019-03-02T22:27:03.708Z,5.63
2019-03-02T22:29:33.272Z,4.53
2019-03-02T22:32:02.846Z,3.53
2019-03-02T22:34:32.464Z,3.70
2019-03-02T22:37:02.045Z,3.80
2019-03-02T22:39:31.604Z,4.17
2019-03-02T22:42:01.177Z,4.67
2019-03-02T22:44:30.739Z,5.03
2019-03-02T22:47:00.384Z,3.83
2019-03-02T22:49:29.980Z,4.50
2019-03-02T22:51:59.545Z,4.87
2019-03-02T22:54:29.187Z,4.97
2019-03-02T22:56:58.743Z,4.63
2019-03-02T22:59:28.392Z,3.87
2019-03-02T23:02:06.156Z,4.43
2019-03-02T23:04:35.779Z,3.83
2019-03-02T23:07:05.488Z,4.13
2019-03-02T23:09:35.067Z,4.50
2019-03-02T23:12:04.614Z,4.50
2019-03-02T23:14:34.239Z,4.23
2019-03-02T23:17:03.909Z,4.73
2019-03-02T23:19:33.491Z,4.23
2019-03-02T23:22:03.074Z,5.40
2019-03-02T23:24:32.630Z,5.10
2019-03-02T23:27:02.272Z,3.83
2019-03-02T23:29:31.843Z,4.10
2019-03-02T23:32:01.399Z,4.50
2019-03-02T23:34:37.061Z,3.93
2019-03-02T23:37:02.207Z,3.97
2019-03-02T23:39:31.761Z,3.80
2019-03-02T23:42:01.302Z,4.63
2019-03-02T23:44:30.860Z,4.23
2019-03-02T23:47:00.424Z,4.20
2019-03-02T23:49:29.992Z,3.83
2019-03-02T23:51:59.540Z,3.90
2019-03-02T23:54:29.200Z,3.60
2019-03-02T23:56:58.768Z,4.30
2019-03-02T23:59:28.380Z,3.57
